sensor_id;sensor_type;location;lat;lon;timestamp;P1;durP1;ratioP1;P2;durP2;ratioP2
23539;SDS011;11947;50.810;4.394;2023-07-16T00:00:44;15.75;;;4.60;;
23539;SDS011;11947;50.810;4.394;2023-07-16T00:03:11;15.10;;;3.80;;
23539;SDS011;11947;50.810;4.394;2023-07-16T00:05:36;12.52;;;3.60;;
23539;SDS011;11947;50.810;4.394;2023-07-16T00:08:03;11.13;;;4.00;;
23539;SDS011;11947;50.810;4.394;2023-07-16T00:10:29;12.27;;;4.07;;
23539;SDS011;11947;50.810;4.394;2023-07-16T00:12:59;13.90;;;4.00;;
23539;SDS011;11947;50.810;4.394;2023-07-16T00:15:25;14.10;;;3.67;;
23539;SDS011;11947;50.810;4.394;2023-07-16T00:17:50;11.88;;;3.78;;
23539;SDS011;11947;50.810;4.394;2023-07-16T00:20:16;13.05;;;4.35;;
23539;SDS011;11947;50.810;4.394;2023-07-16T00:22:42;15.00;;;3.47;;
23539;SDS011;11947;50.810;4.394;2023-07-16T00:25:11;10.25;;;3.78;;
23539;SDS011;11947;50.810;4.394;2023-07-16T00:27:37;12.15;;;3.42;;
23539;SDS011;11947;50.810;4.394;2023-07-16T00:43:06;12.77;;;3.65;;
23539;SDS011;11947;50.810;4.394;2023-07-16T02:29:43;18.02;;;5.53;;
23539;SDS011;11947;50.810;4.394;2023-07-16T02:32:24;15.02;;;5.55;;
23539;SDS011;11947;50.810;4.394;2023-07-16T02:45:47;14.15;;;5.70;;
23539;SDS011;11947;50.810;4.394;2023-07-16T02:48:29;14.35;;;6.00;;
23539;SDS011;11947;50.810;4.394;2023-07-16T02:51:36;16.17;;;6.20;;
23539;SDS011;11947;50.810;4.394;2023-07-16T02:54:18;18.48;;;6.50;;
23539;SDS011;11947;50.810;4.394;2023-07-16T02:57:07;15.63;;;6.57;;
23539;SDS011;11947;50.810;4.394;2023-07-16T02:59:40;16.13;;;5.95;;
23539;SDS011;11947;50.810;4.394;2023-07-16T03:02:08;13.93;;;5.68;;
23539;SDS011;11947;50.810;4.394;2023-07-16T03:04:45;24.00;;;5.80;;
23539;SDS011;11947;50.810;4.394;2023-07-16T03:07:11;14.60;;;5.75;;
23539;SDS011;11947;50.810;4.394;2023-07-16T03:09:41;14.27;;;5.05;;
23539;SDS011;11947;50.810;4.394;2023-07-16T03:14:55;17.15;;;5.80;;
23539;SDS011;11947;50.810;4.394;2023-07-16T03:20:17;10.48;;;4.90;;
23539;SDS011;11947;50.810;4.394;2023-07-16T03:22:51;18.65;;;5.72;;
23539;SDS011;11947;50.810;4.394;2023-07-16T03:25:25;19.42;;;5.63;;
23539;SDS011;11947;50.810;4.394;2023-07-16T03:27:58;16.42;;;5.90;;
23539;SDS011;11947;50.810;4.394;2023-07-16T03:30:29;11.98;;;5.38;;
23539;SDS011;11947;50.810;4.394;2023-07-16T03:32:55;23.33;;;6.13;;
23539;SDS011;11947;50.810;4.394;2023-07-16T03:35:25;20.27;;;5.97;;
23539;SDS011;11947;50.810;4.394;2023-07-16T03:37:51;16.42;;;6.10;;
23539;SDS011;11947;50.810;4.394;2023-07-16T03:40:29;15.50;;;5.47;;
23539;SDS011;11947;50.810;4.394;2023-07-16T03:42:59;16.05;;;6.32;;
23539;SDS011;11947;50.810;4.394;2023-07-16T03:45:26;13.80;;;6.00;;
23539;SDS011;11947;50.810;4.394;2023-07-16T03:48:18;21.88;;;6.00;;
23539;SDS011;11947;50.810;4.394;2023-07-16T03:50:44;17.85;;;5.88;;
23539;SDS011;11947;50.810;4.394;2023-07-16T03:53:10;14.30;;;5.55;;
23539;SDS011;11947;50.810;4.394;2023-07-16T03:55:36;19.70;;;6.15;;
23539;SDS011;11947;50.810;4.394;2023-07-16T03:58:02;18.65;;;5.55;;
23539;SDS011;11947;50.810;4.394;2023-07-16T04:00:28;20.80;;;5.80;;
23539;SDS011;11947;50.810;4.394;2023-07-16T04:02:54;15.82;;;6.03;;
23539;SDS011;11947;50.810;4.394;2023-07-16T04:05:21;16.27;;;5.65;;
23539;SDS011;11947;50.810;4.394;2023-07-16T04:07:49;15.13;;;6.25;;
23539;SDS011;11947;50.810;4.394;2023-07-16T04:10:15;17.20;;;6.05;;
23539;SDS011;11947;50.810;4.394;2023-07-16T04:12:41;18.13;;;6.45;;
23539;SDS011;11947;50.810;4.394;2023-07-16T04:15:07;18.50;;;7.18;;
23539;SDS011;11947;50.810;4.394;2023-07-16T04:17:36;15.63;;;6.72;;
23539;SDS011;11947;50.810;4.394;2023-07-16T04:20:02;17.35;;;6.30;;
23539;SDS011;11947;50.810;4.394;2023-07-16T04:22:29;18.20;;;6.72;;
23539;SDS011;11947;50.810;4.394;2023-07-16T04:24:55;16.25;;;5.95;;
23539;SDS011;11947;50.810;4.394;2023-07-16T04:27:22;19.85;;;6.75;;
23539;SDS011;11947;50.810;4.394;2023-07-16T04:29:48;16.60;;;6.68;;
23539;SDS011;11947;50.810;4.394;2023-07-16T04:32:14;16.13;;;6.13;;
23539;SDS011;11947;50.810;4.394;2023-07-16T04:34:39;14.57;;;6.20;;
23539;SDS011;11947;50.810;4.394;2023-07-16T04:37:05;21.95;;;6.97;;
23539;SDS011;11947;50.810;4.394;2023-07-16T04:39:31;17.27;;;6.10;;
23539;SDS011;11947;50.810;4.394;2023-07-16T04:41:56;14.93;;;6.60;;
23539;SDS011;11947;50.810;4.394;2023-07-16T04:44:22;22.05;;;6.28;;
23539;SDS011;11947;50.810;4.394;2023-07-16T04:46:48;15.02;;;6.63;;
23539;SDS011;11947;50.810;4.394;2023-07-16T04:49:13;16.85;;;7.07;;
23539;SDS011;11947;50.810;4.394;2023-07-16T04:51:39;15.73;;;6.90;;
23539;SDS011;11947;50.810;4.394;2023-07-16T04:54:04;16.52;;;7.13;;
23539;SDS011;11947;50.810;4.394;2023-07-16T04:59:05;20.90;;;7.90;;
23539;SDS011;11947;50.810;4.394;2023-07-16T05:01:31;19.35;;;7.25;;
23539;SDS011;11947;50.810;4.394;2023-07-16T05:03:57;20.75;;;7.63;;
23539;SDS011;11947;50.810;4.394;2023-07-16T05:06:22;21.05;;;7.50;;
23539;SDS011;11947;50.810;4.394;2023-07-16T05:08:48;22.48;;;8.05;;
23539;SDS011;11947;50.810;4.394;2023-07-16T05:11:14;19.17;;;7.60;;
23539;SDS011;11947;50.810;4.394;2023-07-16T05:13:39;22.25;;;7.68;;
23539;SDS011;11947;50.810;4.394;2023-07-16T05:16:05;21.02;;;7.80;;
23539;SDS011;11947;50.810;4.394;2023-07-16T05:18:30;20.52;;;7.57;;
23539;SDS011;11947;50.810;4.394;2023-07-16T05:20:56;23.83;;;8.25;;
23539;SDS011;11947;50.810;4.394;2023-07-16T05:23:22;21.27;;;7.95;;
23539;SDS011;11947;50.810;4.394;2023-07-16T05:25:48;21.90;;;7.93;;
23539;SDS011;11947;50.810;4.394;2023-07-16T05:28:14;24.95;;;8.00;;
23539;SDS011;11947;50.810;4.394;2023-07-16T05:30:40;19.25;;;8.30;;
23539;SDS011;11947;50.810;4.394;2023-07-16T05:33:06;23.17;;;8.20;;
23539;SDS011;11947;50.810;4.394;2023-07-16T05:35:32;19.10;;;8.15;;
23539;SDS011;11947;50.810;4.394;2023-07-16T05:37:57;19.45;;;7.88;;
23539;SDS011;11947;50.810;4.394;2023-07-16T05:40:23;21.10;;;8.18;;
23539;SDS011;11947;50.810;4.394;2023-07-16T05:42:48;19.33;;;7.93;;
23539;SDS011;11947;50.810;4.394;2023-07-16T05:45:14;18.88;;;7.32;;
23539;SDS011;11947;50.810;4.394;2023-07-16T05:47:40;19.17;;;7.72;;
23539;SDS011;11947;50.810;4.394;2023-07-16T05:50:05;22.38;;;8.18;;
23539;SDS011;11947;50.810;4.394;2023-07-16T05:52:32;21.55;;;7.60;;
23539;SDS011;11947;50.810;4.394;2023-07-16T05:54:58;23.35;;;8.38;;
23539;SDS011;11947;50.810;4.394;2023-07-16T05:57:23;18.77;;;7.85;;
23539;SDS011;11947;50.810;4.394;2023-07-16T05:59:49;21.05;;;8.40;;
23539;SDS011;11947;50.810;4.394;2023-07-16T06:02:14;19.65;;;8.23;;
23539;SDS011;11947;50.810;4.394;2023-07-16T06:04:40;20.35;;;7.82;;
23539;SDS011;11947;50.810;4.394;2023-07-16T06:07:06;18.63;;;8.73;;
23539;SDS011;11947;50.810;4.394;2023-07-16T06:09:31;20.40;;;7.45;;
23539;SDS011;11947;50.810;4.394;2023-07-16T06:11:57;18.88;;;7.50;;
23539;SDS011;11947;50.810;4.394;2023-07-16T06:14:23;23.48;;;8.60;;
23539;SDS011;11947;50.810;4.394;2023-07-16T06:16:48;21.65;;;8.10;;
23539;SDS011;11947;50.810;4.394;2023-07-16T06:19:14;21.90;;;8.18;;
23539;SDS011;11947;50.810;4.394;2023-07-16T06:21:40;20.15;;;8.18;;
23539;SDS011;11947;50.810;4.394;2023-07-16T06:24:05;22.80;;;7.95;;
23539;SDS011;11947;50.810;4.394;2023-07-16T06:26:31;20.05;;;8.18;;
23539;SDS011;11947;50.810;4.394;2023-07-16T06:28:57;21.27;;;8.60;;
23539;SDS011;11947;50.810;4.394;2023-07-16T06:31:22;21.83;;;8.20;;
23539;SDS011;11947;50.810;4.394;2023-07-16T06:33:48;21.38;;;8.43;;
23539;SDS011;11947;50.810;4.394;2023-07-16T06:36:14;24.45;;;8.45;;
23539;SDS011;11947;50.810;4.394;2023-07-16T06:38:40;22.85;;;8.75;;
23539;SDS011;11947;50.810;4.394;2023-07-16T06:41:06;22.50;;;8.55;;
23539;SDS011;11947;50.810;4.394;2023-07-16T06:43:31;21.85;;;8.40;;
23539;SDS011;11947;50.810;4.394;2023-07-16T06:45:57;19.85;;;8.02;;
23539;SDS011;11947;50.810;4.394;2023-07-16T06:48:23;21.48;;;7.80;;
23539;SDS011;11947;50.810;4.394;2023-07-16T06:50:51;20.33;;;7.80;;
23539;SDS011;11947;50.810;4.394;2023-07-16T06:53:17;18.08;;;7.80;;
23539;SDS011;11947;50.810;4.394;2023-07-16T06:55:43;23.88;;;8.40;;
23539;SDS011;11947;50.810;4.394;2023-07-16T06:58:13;24.85;;;9.40;;
23539;SDS011;11947;50.810;4.394;2023-07-16T07:00:39;18.83;;;7.95;;
23539;SDS011;11947;50.810;4.394;2023-07-16T07:03:06;17.33;;;7.78;;
23539;SDS011;11947;50.810;4.394;2023-07-16T07:05:31;21.17;;;8.35;;
23539;SDS011;11947;50.810;4.394;2023-07-16T07:07:57;20.42;;;7.82;;
23539;SDS011;11947;50.810;4.394;2023-07-16T07:10:22;19.05;;;8.60;;
23539;SDS011;11947;50.810;4.394;2023-07-16T07:12:48;19.17;;;8.18;;
23539;SDS011;11947;50.810;4.394;2023-07-16T07:15:14;19.23;;;8.38;;
23539;SDS011;11947;50.810;4.394;2023-07-16T07:17:39;19.20;;;8.13;;
23539;SDS011;11947;50.810;4.394;2023-07-16T07:20:07;18.98;;;7.80;;
23539;SDS011;11947;50.810;4.394;2023-07-16T07:22:33;16.05;;;8.63;;
23539;SDS011;11947;50.810;4.394;2023-07-16T07:24:59;16.77;;;7.68;;
23539;SDS011;11947;50.810;4.394;2023-07-16T07:27:25;18.15;;;7.95;;
23539;SDS011;11947;50.810;4.394;2023-07-16T07:29:50;17.48;;;7.50;;
23539;SDS011;11947;50.810;4.394;2023-07-16T07:32:18;18.30;;;8.52;;
23539;SDS011;11947;50.810;4.394;2023-07-16T07:34:45;18.48;;;7.82;;
23539;SDS011;11947;50.810;4.394;2023-07-16T07:37:10;21.17;;;7.32;;
23539;SDS011;11947;50.810;4.394;2023-07-16T07:39:36;14.85;;;7.93;;
23539;SDS011;11947;50.810;4.394;2023-07-16T07:42:01;18.52;;;7.95;;
23539;SDS011;11947;50.810;4.394;2023-07-16T07:44:27;20.00;;;7.85;;
23539;SDS011;11947;50.810;4.394;2023-07-16T07:46:53;14.90;;;8.05;;
23539;SDS011;11947;50.810;4.394;2023-07-16T07:49:18;19.20;;;7.53;;
23539;SDS011;11947;50.810;4.394;2023-07-16T07:51:44;18.52;;;7.90;;
23539;SDS011;11947;50.810;4.394;2023-07-16T07:54:09;15.52;;;7.72;;
23539;SDS011;11947;50.810;4.394;2023-07-16T07:56:35;17.85;;;7.88;;
23539;SDS011;11947;50.810;4.394;2023-07-16T07:59:00;15.52;;;7.78;;
23539;SDS011;11947;50.810;4.394;2023-07-16T08:01:26;17.80;;;7.15;;
23539;SDS011;11947;50.810;4.394;2023-07-16T08:03:52;19.08;;;8.18;;
23539;SDS011;11947;50.810;4.394;2023-07-16T08:06:17;19.83;;;8.00;;
23539;SDS011;11947;50.810;4.394;2023-07-16T08:08:43;17.60;;;8.02;;
23539;SDS011;11947;50.810;4.394;2023-07-16T08:11:08;17.80;;;8.18;;
23539;SDS011;11947;50.810;4.394;2023-07-16T08:13:34;18.65;;;8.05;;
23539;SDS011;11947;50.810;4.394;2023-07-16T08:16:00;14.20;;;7.05;;
23539;SDS011;11947;50.810;4.394;2023-07-16T08:18:25;16.38;;;8.50;;
23539;SDS011;11947;50.810;4.394;2023-07-16T08:20:51;16.98;;;7.75;;
23539;SDS011;11947;50.810;4.394;2023-07-16T08:23:17;15.48;;;8.02;;
23539;SDS011;11947;50.810;4.394;2023-07-16T08:25:42;21.00;;;7.75;;
23539;SDS011;11947;50.810;4.394;2023-07-16T08:28:09;19.67;;;7.57;;
23539;SDS011;11947;50.810;4.394;2023-07-16T08:30:35;16.08;;;7.10;;
23539;SDS011;11947;50.810;4.394;2023-07-16T08:33:00;13.85;;;6.30;;
23539;SDS011;11947;50.810;4.394;2023-07-16T08:35:26;19.17;;;6.78;;
23539;SDS011;11947;50.810;4.394;2023-07-16T08:37:51;15.27;;;6.80;;
23539;SDS011;11947;50.810;4.394;2023-07-16T08:40:17;15.05;;;7.18;;
23539;SDS011;11947;50.810;4.394;2023-07-16T08:42:44;16.25;;;8.05;;
23539;SDS011;11947;50.810;4.394;2023-07-16T08:45:11;16.30;;;7.28;;
23539;SDS011;11947;50.810;4.394;2023-07-16T08:47:37;16.02;;;6.93;;
23539;SDS011;11947;50.810;4.394;2023-07-16T08:50:03;19.77;;;7.22;;
23539;SDS011;11947;50.810;4.394;2023-07-16T08:52:29;13.00;;;6.55;;
23539;SDS011;11947;50.810;4.394;2023-07-16T08:54:55;15.32;;;6.60;;
23539;SDS011;11947;50.810;4.394;2023-07-16T08:57:21;12.45;;;6.97;;
23539;SDS011;11947;50.810;4.394;2023-07-16T08:59:50;15.07;;;6.68;;
23539;SDS011;11947;50.810;4.394;2023-07-16T09:02:19;14.48;;;6.65;;
23539;SDS011;11947;50.810;4.394;2023-07-16T09:04:49;19.23;;;6.95;;
23539;SDS011;11947;50.810;4.394;2023-07-16T09:07:19;14.48;;;6.82;;
23539;SDS011;11947;50.810;4.394;2023-07-16T09:09:54;15.20;;;6.40;;
23539;SDS011;11947;50.810;4.394;2023-07-16T09:12:24;16.33;;;6.47;;
23539;SDS011;11947;50.810;4.394;2023-07-16T09:14:50;20.35;;;7.00;;
23539;SDS011;11947;50.810;4.394;2023-07-16T09:17:23;15.75;;;6.28;;
23539;SDS011;11947;50.810;4.394;2023-07-16T09:19:52;11.30;;;6.10;;
23539;SDS011;11947;50.810;4.394;2023-07-16T09:22:18;13.73;;;6.20;;
23539;SDS011;11947;50.810;4.394;2023-07-16T09:24:45;14.02;;;6.30;;
23539;SDS011;11947;50.810;4.394;2023-07-16T09:27:12;13.73;;;6.38;;
23539;SDS011;11947;50.810;4.394;2023-07-16T09:29:38;13.80;;;6.38;;
23539;SDS011;11947;50.810;4.394;2023-07-16T09:32:04;13.68;;;6.28;;
23539;SDS011;11947;50.810;4.394;2023-07-16T09:34:30;13.15;;;6.75;;
23539;SDS011;11947;50.810;4.394;2023-07-16T09:37:00;16.55;;;6.20;;
23539;SDS011;11947;50.810;4.394;2023-07-16T09:39:26;12.20;;;6.18;;
23539;SDS011;11947;50.810;4.394;2023-07-16T09:41:53;13.02;;;5.90;;
23539;SDS011;11947;50.810;4.394;2023-07-16T09:44:21;13.32;;;5.85;;
23539;SDS011;11947;50.810;4.394;2023-07-16T09:46:47;15.02;;;6.00;;
23539;SDS011;11947;50.810;4.394;2023-07-16T09:49:14;13.73;;;5.97;;
23539;SDS011;11947;50.810;4.394;2023-07-16T09:51:40;13.18;;;5.68;;
23539;SDS011;11947;50.810;4.394;2023-07-16T09:54:07;13.05;;;6.05;;
23539;SDS011;11947;50.810;4.394;2023-07-16T09:56:43;14.65;;;6.00;;
23539;SDS011;11947;50.810;4.394;2023-07-16T09:59:13;12.98;;;5.57;;
23539;SDS011;11947;50.810;4.394;2023-07-16T10:01:40;14.95;;;5.70;;
23539;SDS011;11947;50.810;4.394;2023-07-16T10:04:12;14.90;;;5.93;;
23539;SDS011;11947;50.810;4.394;2023-07-16T10:09:40;15.90;;;5.72;;
23539;SDS011;11947;50.810;4.394;2023-07-16T10:12:17;12.85;;;5.95;;
23539;SDS011;11947;50.810;4.394;2023-07-16T10:14:47;12.70;;;5.68;;
23539;SDS011;11947;50.810;4.394;2023-07-16T10:17:21;14.27;;;5.80;;
23539;SDS011;11947;50.810;4.394;2023-07-16T10:22:33;12.93;;;5.47;;
23539;SDS011;11947;50.810;4.394;2023-07-16T10:25:01;14.85;;;5.50;;
23539;SDS011;11947;50.810;4.394;2023-07-16T10:27:28;11.98;;;5.57;;
23539;SDS011;11947;50.810;4.394;2023-07-16T10:29:59;12.75;;;6.38;;
23539;SDS011;11947;50.810;4.394;2023-07-16T10:32:29;12.60;;;5.68;;
23539;SDS011;11947;50.810;4.394;2023-07-16T10:34:56;17.20;;;5.85;;
23539;SDS011;11947;50.810;4.394;2023-07-16T10:37:22;14.70;;;6.22;;
23539;SDS011;11947;50.810;4.394;2023-07-16T10:39:48;13.80;;;6.30;;
23539;SDS011;11947;50.810;4.394;2023-07-16T10:42:15;10.45;;;5.97;;
23539;SDS011;11947;50.810;4.394;2023-07-16T10:44:41;13.95;;;5.70;;
23539;SDS011;11947;50.810;4.394;2023-07-16T10:47:08;13.80;;;5.95;;
23539;SDS011;11947;50.810;4.394;2023-07-16T10:49:34;12.20;;;5.68;;
23539;SDS011;11947;50.810;4.394;2023-07-16T10:52:00;16.48;;;5.78;;
23539;SDS011;11947;50.810;4.394;2023-07-16T10:54:26;13.32;;;5.63;;
23539;SDS011;11947;50.810;4.394;2023-07-16T10:56:52;11.77;;;5.38;;
23539;SDS011;11947;50.810;4.394;2023-07-16T10:59:18;15.30;;;5.65;;
23539;SDS011;11947;50.810;4.394;2023-07-16T11:01:43;14.35;;;5.55;;
23539;SDS011;11947;50.810;4.394;2023-07-16T11:04:10;13.57;;;5.65;;
23539;SDS011;11947;50.810;4.394;2023-07-16T11:06:35;17.20;;;5.70;;
23539;SDS011;11947;50.810;4.394;2023-07-16T11:09:08;10.63;;;5.72;;
23539;SDS011;11947;50.810;4.394;2023-07-16T11:11:34;13.05;;;6.43;;
23539;SDS011;11947;50.810;4.394;2023-07-16T11:14:02;15.82;;;6.07;;
23539;SDS011;11947;50.810;4.394;2023-07-16T11:16:33;12.18;;;6.22;;
23539;SDS011;11947;50.810;4.394;2023-07-16T11:19:05;12.38;;;5.65;;
23539;SDS011;11947;50.810;4.394;2023-07-16T11:21:35;12.98;;;5.47;;
23539;SDS011;11947;50.810;4.394;2023-07-16T11:24:14;14.48;;;5.72;;
23539;SDS011;11947;50.810;4.394;2023-07-16T11:26:48;16.73;;;5.80;;
23539;SDS011;11947;50.810;4.394;2023-07-16T11:29:17;12.25;;;5.57;;
23539;SDS011;11947;50.810;4.394;2023-07-16T11:31:42;12.02;;;5.45;;
23539;SDS011;11947;50.810;4.394;2023-07-16T11:34:12;14.32;;;5.88;;
23539;SDS011;11947;50.810;4.394;2023-07-16T11:36:38;12.90;;;5.53;;
23539;SDS011;11947;50.810;4.394;2023-07-16T11:39:04;11.57;;;5.60;;
23539;SDS011;11947;50.810;4.394;2023-07-16T11:41:30;11.70;;;6.20;;
23539;SDS011;11947;50.810;4.394;2023-07-16T11:44:02;15.88;;;6.60;;
23539;SDS011;11947;50.810;4.394;2023-07-16T11:46:31;20.20;;;6.95;;
23539;SDS011;11947;50.810;4.394;2023-07-16T11:49:00;17.23;;;6.43;;
23539;SDS011;11947;50.810;4.394;2023-07-16T11:51:29;14.73;;;6.07;;
23539;SDS011;11947;50.810;4.394;2023-07-16T11:53:55;11.85;;;6.10;;
23539;SDS011;11947;50.810;4.394;2023-07-16T11:56:22;11.10;;;5.90;;
23539;SDS011;11947;50.810;4.394;2023-07-16T11:58:49;14.40;;;5.88;;
23539;SDS011;11947;50.810;4.394;2023-07-16T12:01:17;11.20;;;5.28;;
23539;SDS011;11947;50.810;4.394;2023-07-16T12:03:43;9.63;;;5.22;;
23539;SDS011;11947;50.810;4.394;2023-07-16T12:06:09;8.63;;;5.40;;
23539;SDS011;11947;50.810;4.394;2023-07-16T12:08:34;10.98;;;5.00;;
23539;SDS011;11947;50.810;4.394;2023-07-16T12:11:00;9.88;;;5.22;;
23539;SDS011;11947;50.810;4.394;2023-07-16T12:13:26;12.43;;;6.70;;
23539;SDS011;11947;50.810;4.394;2023-07-16T12:15:52;10.10;;;5.38;;
23539;SDS011;11947;50.810;4.394;2023-07-16T12:18:17;9.95;;;5.18;;
23539;SDS011;11947;50.810;4.394;2023-07-16T12:20:43;9.50;;;4.65;;
23539;SDS011;11947;50.810;4.394;2023-07-16T12:23:09;8.23;;;4.60;;
23539;SDS011;11947;50.810;4.394;2023-07-16T12:25:34;11.43;;;5.20;;
23539;SDS011;11947;50.810;4.394;2023-07-16T12:28:03;11.63;;;4.85;;
23539;SDS011;11947;50.810;4.394;2023-07-16T12:30:32;7.75;;;4.75;;
23539;SDS011;11947;50.810;4.394;2023-07-16T12:35:43;9.07;;;5.13;;
23539;SDS011;11947;50.810;4.394;2023-07-16T12:38:09;9.15;;;4.68;;
23539;SDS011;11947;50.810;4.394;2023-07-16T12:40:35;10.65;;;4.70;;
23539;SDS011;11947;50.810;4.394;2023-07-16T12:43:04;10.77;;;5.10;;
23539;SDS011;11947;50.810;4.394;2023-07-16T12:45:30;10.32;;;4.25;;
23539;SDS011;11947;50.810;4.394;2023-07-16T12:47:56;7.47;;;4.50;;
23539;SDS011;11947;50.810;4.394;2023-07-16T12:50:22;7.88;;;4.28;;
23539;SDS011;11947;50.810;4.394;2023-07-16T12:52:48;6.85;;;4.47;;
23539;SDS011;11947;50.810;4.394;2023-07-16T12:55:14;8.77;;;4.43;;
23539;SDS011;11947;50.810;4.394;2023-07-16T12:57:39;8.52;;;4.30;;
23539;SDS011;11947;50.810;4.394;2023-07-16T13:00:05;10.75;;;5.15;;
23539;SDS011;11947;50.810;4.394;2023-07-16T13:02:34;11.18;;;4.50;;
23539;SDS011;11947;50.810;4.394;2023-07-16T13:05:00;11.18;;;4.68;;
23539;SDS011;11947;50.810;4.394;2023-07-16T13:07:25;9.10;;;4.97;;
23539;SDS011;11947;50.810;4.394;2023-07-16T13:09:51;7.80;;;4.80;;
23539;SDS011;11947;50.810;4.394;2023-07-16T13:12:17;11.30;;;5.07;;
23539;SDS011;11947;50.810;4.394;2023-07-16T13:14:42;8.40;;;4.43;;
23539;SDS011;11947;50.810;4.394;2023-07-16T13:17:08;8.93;;;4.50;;
23539;SDS011;11947;50.810;4.394;2023-07-16T13:19:34;7.43;;;4.07;;
23539;SDS011;11947;50.810;4.394;2023-07-16T13:21:59;9.13;;;4.85;;
23539;SDS011;11947;50.810;4.394;2023-07-16T13:24:25;8.00;;;4.20;;
23539;SDS011;11947;50.810;4.394;2023-07-16T13:26:51;11.18;;;4.47;;
23539;SDS011;11947;50.810;4.394;2023-07-16T13:29:16;9.63;;;4.57;;
23539;SDS011;11947;50.810;4.394;2023-07-16T13:31:42;7.65;;;3.97;;
23539;SDS011;11947;50.810;4.394;2023-07-16T13:34:07;8.00;;;4.55;;
23539;SDS011;11947;50.810;4.394;2023-07-16T13:36:33;5.97;;;3.80;;
23539;SDS011;11947;50.810;4.394;2023-07-16T13:38:59;12.68;;;4.72;;
23539;SDS011;11947;50.810;4.394;2023-07-16T13:41:24;20.27;;;5.78;;
23539;SDS011;11947;50.810;4.394;2023-07-16T13:43:50;10.40;;;4.97;;
23539;SDS011;11947;50.810;4.394;2023-07-16T13:46:17;15.15;;;4.65;;
23539;SDS011;11947;50.810;4.394;2023-07-16T13:48:42;10.43;;;4.28;;
23539;SDS011;11947;50.810;4.394;2023-07-16T13:51:08;8.60;;;4.43;;
23539;SDS011;11947;50.810;4.394;2023-07-16T13:53:34;8.13;;;3.70;;
23539;SDS011;11947;50.810;4.394;2023-07-16T13:56:00;7.47;;;3.50;;
23539;SDS011;11947;50.810;4.394;2023-07-16T13:58:25;9.82;;;3.78;;
23539;SDS011;11947;50.810;4.394;2023-07-16T14:00:51;8.48;;;3.63;;
23539;SDS011;11947;50.810;4.394;2023-07-16T14:03:16;9.15;;;3.63;;
23539;SDS011;11947;50.810;4.394;2023-07-16T14:05:42;8.63;;;3.85;;
23539;SDS011;11947;50.810;4.394;2023-07-16T14:08:08;11.18;;;4.10;;
23539;SDS011;11947;50.810;4.394;2023-07-16T14:10:33;5.63;;;3.15;;
23539;SDS011;11947;50.810;4.394;2023-07-16T14:12:59;8.32;;;3.30;;
23539;SDS011;11947;50.810;4.394;2023-07-16T14:15:24;6.60;;;3.40;;
23539;SDS011;11947;50.810;4.394;2023-07-16T14:17:50;7.18;;;3.97;;
23539;SDS011;11947;50.810;4.394;2023-07-16T14:20:16;7.47;;;3.78;;
23539;SDS011;11947;50.810;4.394;2023-07-16T14:22:41;6.60;;;3.65;;
23539;SDS011;11947;50.810;4.394;2023-07-16T14:25:07;6.38;;;4.03;;
23539;SDS011;11947;50.810;4.394;2023-07-16T14:27:34;7.05;;;4.03;;
23539;SDS011;11947;50.810;4.394;2023-07-16T14:29:59;9.48;;;4.28;;
23539;SDS011;11947;50.810;4.394;2023-07-16T14:32:25;8.55;;;4.10;;
23539;SDS011;11947;50.810;4.394;2023-07-16T14:34:51;11.82;;;4.40;;
23539;SDS011;11947;50.810;4.394;2023-07-16T14:37:17;9.85;;;4.75;;
23539;SDS011;11947;50.810;4.394;2023-07-16T14:39:42;9.80;;;4.53;;
23539;SDS011;11947;50.810;4.394;2023-07-16T14:42:08;12.18;;;4.20;;
23539;SDS011;11947;50.810;4.394;2023-07-16T14:44:34;10.13;;;4.68;;
23539;SDS011;11947;50.810;4.394;2023-07-16T14:46:59;8.43;;;4.55;;
23539;SDS011;11947;50.810;4.394;2023-07-16T14:49:25;8.50;;;4.00;;
23539;SDS011;11947;50.810;4.394;2023-07-16T14:51:51;5.93;;;2.97;;
23539;SDS011;11947;50.810;4.394;2023-07-16T14:54:16;7.68;;;3.47;;
23539;SDS011;11947;50.810;4.394;2023-07-16T14:56:42;6.70;;;3.08;;
23539;SDS011;11947;50.810;4.394;2023-07-16T14:59:08;5.63;;;3.15;;
23539;SDS011;11947;50.810;4.394;2023-07-16T15:01:34;6.97;;;3.90;;
23539;SDS011;11947;50.810;4.394;2023-07-16T15:03:59;6.18;;;2.30;;
23539;SDS011;11947;50.810;4.394;2023-07-16T15:06:25;5.30;;;2.92;;
23539;SDS011;11947;50.810;4.394;2023-07-16T15:08:51;8.50;;;3.03;;
23539;SDS011;11947;50.810;4.394;2023-07-16T15:11:18;4.97;;;2.42;;
23539;SDS011;11947;50.810;4.394;2023-07-16T15:13:44;4.65;;;2.13;;
23539;SDS011;11947;50.810;4.394;2023-07-16T15:16:09;15.98;;;3.20;;
23539;SDS011;11947;50.810;4.394;2023-07-16T15:18:37;6.80;;;2.45;;
23539;SDS011;11947;50.810;4.394;2023-07-16T15:21:03;4.43;;;2.50;;
23539;SDS011;11947;50.810;4.394;2023-07-16T15:23:29;6.32;;;2.45;;
23539;SDS011;11947;50.810;4.394;2023-07-16T15:25:55;3.58;;;2.40;;
23539;SDS011;11947;50.810;4.394;2023-07-16T15:28:26;4.93;;;2.28;;
23539;SDS011;11947;50.810;4.394;2023-07-16T15:30:52;4.10;;;2.60;;
23539;SDS011;11947;50.810;4.394;2023-07-16T15:33:17;21.17;;;3.60;;
23539;SDS011;11947;50.810;4.394;2023-07-16T15:35:43;4.30;;;2.35;;
23539;SDS011;11947;50.810;4.394;2023-07-16T15:38:09;5.53;;;3.42;;
23539;SDS011;11947;50.810;4.394;2023-07-16T15:40:35;6.05;;;3.58;;
23539;SDS011;11947;50.810;4.394;2023-07-16T15:43:00;28.77;;;5.18;;
23539;SDS011;11947;50.810;4.394;2023-07-16T15:45:26;7.95;;;3.85;;
23539;SDS011;11947;50.810;4.394;2023-07-16T15:47:52;10.52;;;3.70;;
23539;SDS011;11947;50.810;4.394;2023-07-16T15:50:30;8.15;;;3.40;;
23539;SDS011;11947;50.810;4.394;2023-07-16T15:52:56;6.95;;;3.70;;
23539;SDS011;11947;50.810;4.394;2023-07-16T15:55:22;9.07;;;3.75;;
23539;SDS011;11947;50.810;4.394;2023-07-16T15:57:48;7.63;;;3.97;;
23539;SDS011;11947;50.810;4.394;2023-07-16T16:00:14;7.38;;;3.95;;
23539;SDS011;11947;50.810;4.394;2023-07-16T16:02:45;8.88;;;3.58;;
23539;SDS011;11947;50.810;4.394;2023-07-16T16:05:12;6.53;;;3.72;;
23539;SDS011;11947;50.810;4.394;2023-07-16T16:10:39;7.22;;;3.90;;
23539;SDS011;11947;50.810;4.394;2023-07-16T16:13:06;7.43;;;3.95;;
23539;SDS011;11947;50.810;4.394;2023-07-16T16:15:32;8.63;;;3.80;;
23539;SDS011;11947;50.810;4.394;2023-07-16T16:17:58;8.48;;;4.07;;
23539;SDS011;11947;50.810;4.394;2023-07-16T16:20:23;7.75;;;3.85;;
23539;SDS011;11947;50.810;4.394;2023-07-16T16:22:49;9.55;;;4.28;;
23539;SDS011;11947;50.810;4.394;2023-07-16T16:25:14;23.77;;;7.18;;
23539;SDS011;11947;50.810;4.394;2023-07-16T16:27:44;11.75;;;4.97;;
23539;SDS011;11947;50.810;4.394;2023-07-16T16:30:12;12.00;;;4.82;;
23539;SDS011;11947;50.810;4.394;2023-07-16T16:32:40;11.30;;;4.90;;
23539;SDS011;11947;50.810;4.394;2023-07-16T16:35:13;10.00;;;5.00;;
23539;SDS011;11947;50.810;4.394;2023-07-16T16:37:59;11.50;;;5.10;;
23539;SDS011;11947;50.810;4.394;2023-07-16T16:40:43;9.95;;;5.38;;
23539;SDS011;11947;50.810;4.394;2023-07-16T16:46:09;9.48;;;4.70;;
23539;SDS011;11947;50.810;4.394;2023-07-16T16:48:41;12.35;;;4.80;;
23539;SDS011;11947;50.810;4.394;2023-07-16T17:10:40;8.55;;;4.20;;
23539;SDS011;11947;50.810;4.394;2023-07-16T17:13:07;10.25;;;4.30;;
23539;SDS011;11947;50.810;4.394;2023-07-16T17:15:49;7.25;;;3.90;;
23539;SDS011;11947;50.810;4.394;2023-07-16T17:18:18;10.00;;;4.40;;
23539;SDS011;11947;50.810;4.394;2023-07-16T17:20:52;6.75;;;3.03;;
23539;SDS011;11947;50.810;4.394;2023-07-16T17:25:54;10.05;;;3.50;;
23539;SDS011;11947;50.810;4.394;2023-07-16T17:28:25;7.47;;;4.00;;
23539;SDS011;11947;50.810;4.394;2023-07-16T17:36:48;7.57;;;3.72;;